sensor_id;sensor_type;location;lat;lon;timestamp;P1;durP1;ratioP1;P2;durP2;ratioP2
19889;SDS011;10107;51.198;6.824;2023-01-09T00:02:21;1.00;;;0.60;;
19889;SDS011;10107;51.198;6.824;2023-01-09T00:06:23;0.73;;;0.60;;
19889;SDS011;10107;51.198;6.824;2023-01-09T00:10:26;0.57;;;0.47;;
19889;SDS011;10107;51.198;6.824;2023-01-09T00:14:28;0.30;;;0.30;;
19889;SDS011;10107;51.198;6.824;2023-01-09T00:18:30;0.30;;;0.30;;
19889;SDS011;10107;51.198;6.824;2023-01-09T00:22:32;0.50;;;0.30;;
19889;SDS011;10107;51.198;6.824;2023-01-09T00:26:35;0.73;;;0.35;;
19889;SDS011;10107;51.198;6.824;2023-01-09T00:30:39;1.70;;;0.40;;
19889;SDS011;10107;51.198;6.824;2023-01-09T00:34:40;0.40;;;0.40;;
19889;SDS011;10107;51.198;6.824;2023-01-09T00:38:42;0.88;;;0.40;;
19889;SDS011;10107;51.198;6.824;2023-01-09T00:42:46;0.30;;;0.30;;
19889;SDS011;10107;51.198;6.824;2023-01-09T00:46:55;0.20;;;0.20;;
19889;SDS011;10107;51.198;6.824;2023-01-09T00:51:00;0.20;;;0.20;;
19889;SDS011;10107;51.198;6.824;2023-01-09T00:55:02;0.20;;;0.20;;
19889;SDS011;10107;51.198;6.824;2023-01-09T00:59:06;0.20;;;0.20;;
19889;SDS011;10107;51.198;6.824;2023-01-09T01:03:08;0.30;;;0.22;;
19889;SDS011;10107;51.198;6.824;2023-01-09T01:07:10;0.30;;;0.30;;
19889;SDS011;10107;51.198;6.824;2023-01-09T01:11:30;0.30;;;0.30;;
19889;SDS011;10107;51.198;6.824;2023-01-09T01:15:34;0.30;;;0.30;;
19889;SDS011;10107;51.198;6.824;2023-01-09T01:19:38;0.65;;;0.40;;
19889;SDS011;10107;51.198;6.824;2023-01-09T01:23:43;0.40;;;0.40;;
19889;SDS011;10107;51.198;6.824;2023-01-09T01:27:44;0.35;;;0.30;;
19889;SDS011;10107;51.198;6.824;2023-01-09T01:31:48;0.45;;;0.30;;
19889;SDS011;10107;51.198;6.824;2023-01-09T01:35:57;0.30;;;0.30;;
19889;SDS011;10107;51.198;6.824;2023-01-09T01:40:00;0.85;;;0.35;;
19889;SDS011;10107;51.198;6.824;2023-01-09T01:44:03;0.40;;;0.35;;
19889;SDS011;10107;51.198;6.824;2023-01-09T01:48:08;0.50;;;0.40;;
19889;SDS011;10107;51.198;6.824;2023-01-09T01:52:13;0.90;;;0.77;;
19889;SDS011;10107;51.198;6.824;2023-01-09T01:56:17;0.40;;;0.40;;
19889;SDS011;10107;51.198;6.824;2023-01-09T02:00:29;0.80;;;0.60;;
19889;SDS011;10107;51.198;6.824;2023-01-09T02:04:34;0.60;;;0.50;;
19889;SDS011;10107;51.198;6.824;2023-01-09T02:08:39;0.63;;;0.57;;
19889;SDS011;10107;51.198;6.824;2023-01-09T02:12:41;0.57;;;0.57;;
19889;SDS011;10107;51.198;6.824;2023-01-09T02:16:46;0.77;;;0.60;;
19889;SDS011;10107;51.198;6.824;2023-01-09T02:20:57;0.57;;;0.50;;
19889;SDS011;10107;51.198;6.824;2023-01-09T02:25:10;1.92;;;0.82;;
19889;SDS011;10107;51.198;6.824;2023-01-09T02:34:21;2.30;;;0.80;;
19889;SDS011;10107;51.198;6.824;2023-01-09T02:38:28;2.25;;;0.75;;
19889;SDS011;10107;51.198;6.824;2023-01-09T02:42:36;1.13;;;0.70;;
19889;SDS011;10107;51.198;6.824;2023-01-09T02:46:44;1.98;;;0.90;;
19889;SDS011;10107;51.198;6.824;2023-01-09T02:50:47;1.60;;;0.85;;
19889;SDS011;10107;51.198;6.824;2023-01-09T02:55:00;1.73;;;1.10;;
19889;SDS011;10107;51.198;6.824;2023-01-09T02:59:16;3.42;;;1.30;;
19889;SDS011;10107;51.198;6.824;2023-01-09T03:03:25;1.50;;;1.10;;
19889;SDS011;10107;51.198;6.824;2023-01-09T03:07:36;1.65;;;1.13;;
19889;SDS011;10107;51.198;6.824;2023-01-09T03:11:45;3.30;;;1.20;;
19889;SDS011;10107;51.198;6.824;2023-01-09T03:15:50;1.17;;;1.00;;
19889;SDS011;10107;51.198;6.824;2023-01-09T03:19:57;2.85;;;1.27;;
19889;SDS011;10107;51.198;6.824;2023-01-09T03:24:03;1.77;;;1.20;;
19889;SDS011;10107;51.198;6.824;2023-01-09T03:28:06;3.53;;;1.50;;
19889;SDS011;10107;51.198;6.824;2023-01-09T03:32:13;2.15;;;1.38;;
19889;SDS011;10107;51.198;6.824;2023-01-09T03:36:17;3.03;;;1.30;;
19889;SDS011;10107;51.198;6.824;2023-01-09T03:40:20;1.80;;;1.20;;
19889;SDS011;10107;51.198;6.824;2023-01-09T03:44:22;3.10;;;1.40;;
19889;SDS011;10107;51.198;6.824;2023-01-09T03:48:24;2.35;;;1.20;;
19889;SDS011;10107;51.198;6.824;2023-01-09T03:52:27;2.55;;;1.20;;
19889;SDS011;10107;51.198;6.824;2023-01-09T03:56:29;4.85;;;1.48;;
19889;SDS011;10107;51.198;6.824;2023-01-09T04:00:31;3.72;;;1.23;;
19889;SDS011;10107;51.198;6.824;2023-01-09T04:04:32;4.15;;;1.58;;
19889;SDS011;10107;51.198;6.824;2023-01-09T04:08:35;4.43;;;1.45;;
19889;SDS011;10107;51.198;6.824;2023-01-09T04:12:37;2.73;;;1.63;;
19889;SDS011;10107;51.198;6.824;2023-01-09T04:16:38;3.35;;;1.80;;
19889;SDS011;10107;51.198;6.824;2023-01-09T04:20:40;5.28;;;1.92;;
19889;SDS011;10107;51.198;6.824;2023-01-09T04:24:43;2.80;;;1.73;;
19889;SDS011;10107;51.198;6.824;2023-01-09T04:28:45;1.98;;;1.25;;
19889;SDS011;10107;51.198;6.824;2023-01-09T04:32:47;5.45;;;2.10;;
19889;SDS011;10107;51.198;6.824;2023-01-09T04:36:49;4.95;;;1.95;;
19889;SDS011;10107;51.198;6.824;2023-01-09T04:40:53;4.55;;;1.70;;
19889;SDS011;10107;51.198;6.824;2023-01-09T04:44:55;5.65;;;1.15;;
19889;SDS011;10107;51.198;6.824;2023-01-09T04:48:56;4.82;;;1.73;;
19889;SDS011;10107;51.198;6.824;2023-01-09T04:52:58;3.72;;;1.52;;
19889;SDS011;10107;51.198;6.824;2023-01-09T04:57:01;4.10;;;1.75;;
19889;SDS011;10107;51.198;6.824;2023-01-09T05:01:03;2.28;;;1.15;;
19889;SDS011;10107;51.198;6.824;2023-01-09T05:05:05;3.85;;;1.25;;
19889;SDS011;10107;51.198;6.824;2023-01-09T05:09:07;2.97;;;1.15;;
19889;SDS011;10107;51.198;6.824;2023-01-09T05:13:10;2.60;;;1.45;;
19889;SDS011;10107;51.198;6.824;2023-01-09T05:17:12;7.50;;;1.70;;
19889;SDS011;10107;51.198;6.824;2023-01-09T05:21:14;2.92;;;1.23;;
19889;SDS011;10107;51.198;6.824;2023-01-09T05:25:15;6.47;;;1.63;;
19889;SDS011;10107;51.198;6.824;2023-01-09T05:29:19;4.43;;;1.40;;
19889;SDS011;10107;51.198;6.824;2023-01-09T05:33:21;1.88;;;1.08;;
19889;SDS011;10107;51.198;6.824;2023-01-09T05:37:23;5.80;;;1.35;;
19889;SDS011;10107;51.198;6.824;2023-01-09T05:41:25;4.00;;;1.48;;
19889;SDS011;10107;51.198;6.824;2023-01-09T05:45:28;6.40;;;1.60;;
19889;SDS011;10107;51.198;6.824;2023-01-09T05:49:29;4.07;;;1.20;;
19889;SDS011;10107;51.198;6.824;2023-01-09T05:53:31;2.90;;;1.33;;
19889;SDS011;10107;51.198;6.824;2023-01-09T05:57:33;3.67;;;1.27;;
19889;SDS011;10107;51.198;6.824;2023-01-09T06:01:36;4.80;;;1.23;;
19889;SDS011;10107;51.198;6.824;2023-01-09T06:05:37;4.73;;;0.90;;
19889;SDS011;10107;51.198;6.824;2023-01-09T06:09:39;4.07;;;1.30;;
19889;SDS011;10107;51.198;6.824;2023-01-09T06:13:41;2.88;;;1.00;;
19889;SDS011;10107;51.198;6.824;2023-01-09T06:17:44;2.70;;;1.15;;
19889;SDS011;10107;51.198;6.824;2023-01-09T06:21:45;4.03;;;0.90;;
19889;SDS011;10107;51.198;6.824;2023-01-09T06:25:47;3.05;;;1.20;;
19889;SDS011;10107;51.198;6.824;2023-01-09T06:29:48;6.32;;;1.30;;
19889;SDS011;10107;51.198;6.824;2023-01-09T06:33:51;4.07;;;1.23;;
19889;SDS011;10107;51.198;6.824;2023-01-09T06:37:53;3.42;;;1.83;;
19889;SDS011;10107;51.198;6.824;2023-01-09T06:41:55;3.55;;;1.13;;
19889;SDS011;10107;51.198;6.824;2023-01-09T06:45:57;5.63;;;1.25;;
19889;SDS011;10107;51.198;6.824;2023-01-09T06:50:00;6.32;;;1.40;;
19889;SDS011;10107;51.198;6.824;2023-01-09T06:54:01;2.80;;;0.80;;
19889;SDS011;10107;51.198;6.824;2023-01-09T06:58:04;4.32;;;1.00;;
19889;SDS011;10107;51.198;6.824;2023-01-09T07:02:07;3.63;;;1.00;;
19889;SDS011;10107;51.198;6.824;2023-01-09T07:06:18;2.70;;;1.30;;
19889;SDS011;10107;51.198;6.824;2023-01-09T07:10:21;4.45;;;1.15;;
19889;SDS011;10107;51.198;6.824;2023-01-09T07:14:23;6.15;;;1.20;;
19889;SDS011;10107;51.198;6.824;2023-01-09T07:18:24;3.08;;;1.00;;
19889;SDS011;10107;51.198;6.824;2023-01-09T07:22:27;3.08;;;1.15;;
19889;SDS011;10107;51.198;6.824;2023-01-09T07:26:29;4.05;;;1.00;;
19889;SDS011;10107;51.198;6.824;2023-01-09T07:30:30;3.90;;;1.40;;
19889;SDS011;10107;51.198;6.824;2023-01-09T07:34:32;4.78;;;1.17;;
19889;SDS011;10107;51.198;6.824;2023-01-09T07:38:35;4.20;;;1.30;;
19889;SDS011;10107;51.198;6.824;2023-01-09T07:42:37;1.80;;;1.10;;
19889;SDS011;10107;51.198;6.824;2023-01-09T07:46:39;2.78;;;1.17;;
19889;SDS011;10107;51.198;6.824;2023-01-09T07:50:40;5.38;;;1.27;;
19889;SDS011;10107;51.198;6.824;2023-01-09T07:54:43;6.63;;;1.23;;
19889;SDS011;10107;51.198;6.824;2023-01-09T07:58:45;4.60;;;1.42;;
19889;SDS011;10107;51.198;6.824;2023-01-09T08:02:49;5.25;;;1.50;;
19889;SDS011;10107;51.198;6.824;2023-01-09T08:06:51;2.72;;;1.10;;
19889;SDS011;10107;51.198;6.824;2023-01-09T08:10:55;3.63;;;1.40;;
19889;SDS011;10107;51.198;6.824;2023-01-09T08:14:56;3.75;;;1.42;;
19889;SDS011;10107;51.198;6.824;2023-01-09T08:18:58;4.13;;;1.42;;
19889;SDS011;10107;51.198;6.824;2023-01-09T08:23:00;2.28;;;1.10;;
19889;SDS011;10107;51.198;6.824;2023-01-09T08:27:03;5.45;;;1.30;;
19889;SDS011;10107;51.198;6.824;2023-01-09T08:31:05;5.90;;;1.65;;
19889;SDS011;10107;51.198;6.824;2023-01-09T08:35:07;4.25;;;1.38;;
19889;SDS011;10107;51.198;6.824;2023-01-09T08:39:09;6.30;;;1.55;;
19889;SDS011;10107;51.198;6.824;2023-01-09T08:43:12;4.95;;;1.20;;
19889;SDS011;10107;51.198;6.824;2023-01-09T08:47:32;4.70;;;1.42;;
19889;SDS011;10107;51.198;6.824;2023-01-09T08:51:33;5.68;;;1.50;;
19889;SDS011;10107;51.198;6.824;2023-01-09T08:55:35;4.25;;;2.00;;
19889;SDS011;10107;51.198;6.824;2023-01-09T08:59:38;3.03;;;1.20;;
19889;SDS011;10107;51.198;6.824;2023-01-09T09:03:39;5.17;;;2.23;;
19889;SDS011;10107;51.198;6.824;2023-01-09T09:07:41;7.70;;;1.70;;
19889;SDS011;10107;51.198;6.824;2023-01-09T09:11:43;4.13;;;1.90;;
19889;SDS011;10107;51.198;6.824;2023-01-09T09:15:46;2.75;;;1.40;;
19889;SDS011;10107;51.198;6.824;2023-01-09T09:19:47;3.77;;;2.13;;
19889;SDS011;10107;51.198;6.824;2023-01-09T09:23:49;6.63;;;1.52;;
19889;SDS011;10107;51.198;6.824;2023-01-09T09:27:50;5.25;;;1.50;;
19889;SDS011;10107;51.198;6.824;2023-01-09T09:31:54;5.28;;;1.45;;
19889;SDS011;10107;51.198;6.824;2023-01-09T09:35:57;4.23;;;1.90;;
19889;SDS011;10107;51.198;6.824;2023-01-09T09:39:58;4.28;;;1.48;;
19889;SDS011;10107;51.198;6.824;2023-01-09T09:44:05;5.80;;;1.55;;
19889;SDS011;10107;51.198;6.824;2023-01-09T09:52:44;4.63;;;1.42;;
19889;SDS011;10107;51.198;6.824;2023-01-09T09:56:53;4.22;;;1.88;;
19889;SDS011;10107;51.198;6.824;2023-01-09T10:00:57;4.40;;;1.25;;
19889;SDS011;10107;51.198;6.824;2023-01-09T10:05:04;2.15;;;0.90;;
19889;SDS011;10107;51.198;6.824;2023-01-09T10:09:15;3.80;;;1.10;;
19889;SDS011;10107;51.198;6.824;2023-01-09T10:13:25;2.85;;;1.27;;
19889;SDS011;10107;51.198;6.824;2023-01-09T10:17:53;3.13;;;1.10;;
19889;SDS011;10107;51.198;6.824;2023-01-09T10:22:09;3.20;;;1.08;;
19889;SDS011;10107;51.198;6.824;2023-01-09T10:26:20;2.50;;;1.00;;
19889;SDS011;10107;51.198;6.824;2023-01-09T10:30:27;4.15;;;1.15;;
19889;SDS011;10107;51.198;6.824;2023-01-09T10:34:41;4.10;;;1.00;;
19889;SDS011;10107;51.198;6.824;2023-01-09T10:38:52;3.88;;;1.02;;
19889;SDS011;10107;51.198;6.824;2023-01-09T10:42:58;1.33;;;0.73;;
19889;SDS011;10107;51.198;6.824;2023-01-09T10:47:03;1.77;;;1.00;;
19889;SDS011;10107;51.198;6.824;2023-01-09T10:51:14;3.38;;;1.17;;
19889;SDS011;10107;51.198;6.824;2023-01-09T10:55:23;3.92;;;0.93;;
19889;SDS011;10107;51.198;6.824;2023-01-09T10:59:35;3.03;;;1.10;;
19889;SDS011;10107;51.198;6.824;2023-01-09T11:03:36;3.42;;;1.02;;
19889;SDS011;10107;51.198;6.824;2023-01-09T11:07:38;2.33;;;1.13;;
19889;SDS011;10107;51.198;6.824;2023-01-09T11:11:46;2.90;;;1.17;;
19889;SDS011;10107;51.198;6.824;2023-01-09T11:16:01;3.28;;;1.20;;
19889;SDS011;10107;51.198;6.824;2023-01-09T11:20:10;3.63;;;1.30;;
19889;SDS011;10107;51.198;6.824;2023-01-09T11:24:23;7.20;;;1.40;;
19889;SDS011;10107;51.198;6.824;2023-01-09T11:28:32;2.70;;;1.30;;
19889;SDS011;10107;51.198;6.824;2023-01-09T11:32:34;3.20;;;1.02;;
19889;SDS011;10107;51.198;6.824;2023-01-09T11:36:36;3.63;;;1.27;;
19889;SDS011;10107;51.198;6.824;2023-01-09T11:40:43;5.20;;;1.27;;
19889;SDS011;10107;51.198;6.824;2023-01-09T11:44:50;3.60;;;1.05;;
19889;SDS011;10107;51.198;6.824;2023-01-09T11:48:58;5.20;;;1.45;;
19889;SDS011;10107;51.198;6.824;2023-01-09T11:53:10;2.43;;;1.13;;
19889;SDS011;10107;51.198;6.824;2023-01-09T11:57:14;2.20;;;1.20;;
19889;SDS011;10107;51.198;6.824;2023-01-09T12:05:48;2.00;;;1.05;;
19889;SDS011;10107;51.198;6.824;2023-01-09T12:09:56;1.80;;;1.00;;
19889;SDS011;10107;51.198;6.824;2023-01-09T12:14:17;3.30;;;1.20;;
19889;SDS011;10107;51.198;6.824;2023-01-09T12:18:31;4.00;;;1.00;;
19889;SDS011;10107;51.198;6.824;2023-01-09T12:22:39;3.95;;;1.00;;
19889;SDS011;10107;51.198;6.824;2023-01-09T12:26:51;2.75;;;0.90;;
19889;SDS011;10107;51.198;6.824;2023-01-09T12:31:08;2.58;;;1.02;;
19889;SDS011;10107;51.198;6.824;2023-01-09T12:35:23;3.20;;;0.82;;
19889;SDS011;10107;51.198;6.824;2023-01-09T12:39:34;3.92;;;1.00;;
19889;SDS011;10107;51.198;6.824;2023-01-09T12:43:51;1.63;;;1.10;;
19889;SDS011;10107;51.198;6.824;2023-01-09T12:48:07;2.63;;;1.17;;
19889;SDS011;10107;51.198;6.824;2023-01-09T12:52:22;4.72;;;2.22;;
19889;SDS011;10107;51.198;6.824;2023-01-09T12:56:30;8.18;;;4.65;;
19889;SDS011;10107;51.198;6.824;2023-01-09T13:00:36;7.05;;;2.80;;
19889;SDS011;10107;51.198;6.824;2023-01-09T13:04:43;10.27;;;4.18;;
19889;SDS011;10107;51.198;6.824;2023-01-09T13:08:54;5.50;;;2.33;;
19889;SDS011;10107;51.198;6.824;2023-01-09T13:13:09;4.50;;;1.40;;
19889;SDS011;10107;51.198;6.824;2023-01-09T13:17:17;2.80;;;1.73;;
19889;SDS011;10107;51.198;6.824;2023-01-09T13:21:22;4.30;;;1.40;;
19889;SDS011;10107;51.198;6.824;2023-01-09T13:25:34;2.27;;;1.03;;
19889;SDS011;10107;51.198;6.824;2023-01-09T13:29:41;2.88;;;1.30;;
19889;SDS011;10107;51.198;6.824;2023-01-09T13:33:44;2.83;;;1.58;;
19889;SDS011;10107;51.198;6.824;2023-01-09T13:37:52;4.75;;;2.30;;
19889;SDS011;10107;51.198;6.824;2023-01-09T13:41:56;5.80;;;3.28;;
19889;SDS011;10107;51.198;6.824;2023-01-09T13:46:17;7.68;;;3.38;;
19889;SDS011;10107;51.198;6.824;2023-01-09T13:50:20;3.85;;;2.60;;
19889;SDS011;10107;51.198;6.824;2023-01-09T13:59:22;16.15;;;6.70;;
19889;SDS011;10107;51.198;6.824;2023-01-09T14:03:30;5.38;;;2.05;;
19889;SDS011;10107;51.198;6.824;2023-01-09T14:07:33;3.38;;;2.10;;
19889;SDS011;10107;51.198;6.824;2023-01-09T14:11:36;2.80;;;1.80;;
19889;SDS011;10107;51.198;6.824;2023-01-09T14:15:39;4.53;;;1.98;;
19889;SDS011;10107;51.198;6.824;2023-01-09T14:19:44;2.85;;;1.55;;
19889;SDS011;10107;51.198;6.824;2023-01-09T14:23:47;2.65;;;1.40;;
19889;SDS011;10107;51.198;6.824;2023-01-09T14:28:05;4.45;;;1.50;;
19889;SDS011;10107;51.198;6.824;2023-01-09T14:36:58;3.05;;;1.58;;
19889;SDS011;10107;51.198;6.824;2023-01-09T14:41:03;1.90;;;1.40;;
19889;SDS011;10107;51.198;6.824;2023-01-09T14:45:12;3.70;;;1.58;;
19889;SDS011;10107;51.198;6.824;2023-01-09T14:49:22;4.45;;;1.70;;
19889;SDS011;10107;51.198;6.824;2023-01-09T14:53:33;3.75;;;1.90;;
19889;SDS011;10107;51.198;6.824;2023-01-09T14:57:39;2.38;;;1.40;;
19889;SDS011;10107;51.198;6.824;2023-01-09T15:01:41;2.40;;;1.50;;
19889;SDS011;10107;51.198;6.824;2023-01-09T15:05:47;3.65;;;1.83;;
19889;SDS011;10107;51.198;6.824;2023-01-09T15:09:51;4.13;;;1.95;;
19889;SDS011;10107;51.198;6.824;2023-01-09T15:13:53;3.22;;;2.08;;
19889;SDS011;10107;51.198;6.824;2023-01-09T15:18:00;4.18;;;1.90;;
19889;SDS011;10107;51.198;6.824;2023-01-09T15:22:18;5.45;;;2.05;;
19889;SDS011;10107;51.198;6.824;2023-01-09T15:26:23;2.90;;;1.95;;
19889;SDS011;10107;51.198;6.824;2023-01-09T15:30:27;4.82;;;2.30;;
19889;SDS011;10107;51.198;6.824;2023-01-09T15:34:35;3.67;;;1.75;;
19889;SDS011;10107;51.198;6.824;2023-01-09T15:38:38;5.00;;;2.15;;
19889;SDS011;10107;51.198;6.824;2023-01-09T15:42:43;6.68;;;2.10;;
19889;SDS011;10107;51.198;6.824;2023-01-09T15:46:58;4.03;;;1.88;;
19889;SDS011;10107;51.198;6.824;2023-01-09T15:51:03;4.35;;;2.28;;
19889;SDS011;10107;51.198;6.824;2023-01-09T15:55:16;6.32;;;2.47;;
19889;SDS011;10107;51.198;6.824;2023-01-09T15:59:26;2.40;;;1.85;;
19889;SDS011;10107;51.198;6.824;2023-01-09T16:03:30;6.18;;;2.85;;
19889;SDS011;10107;51.198;6.824;2023-01-09T16:07:32;2.75;;;1.80;;
19889;SDS011;10107;51.198;6.824;2023-01-09T16:11:36;4.97;;;2.58;;
19889;SDS011;10107;51.198;6.824;2023-01-09T16:15:39;5.50;;;2.45;;
19889;SDS011;10107;51.198;6.824;2023-01-09T16:19:46;4.57;;;2.63;;
19889;SDS011;10107;51.198;6.824;2023-01-09T16:23:54;8.13;;;2.40;;
19889;SDS011;10107;51.198;6.824;2023-01-09T16:28:13;7.55;;;2.50;;
19889;SDS011;10107;51.198;6.824;2023-01-09T16:32:20;4.57;;;2.38;;
19889;SDS011;10107;51.198;6.824;2023-01-09T16:36:25;5.97;;;2.70;;
19889;SDS011;10107;51.198;6.824;2023-01-09T16:40:28;5.82;;;3.00;;
19889;SDS011;10107;51.198;6.824;2023-01-09T16:44:37;9.95;;;3.63;;
19889;SDS011;10107;51.198;6.824;2023-01-09T16:48:39;8.48;;;3.17;;
19889;SDS011;10107;51.198;6.824;2023-01-09T16:52:44;4.65;;;2.95;;
19889;SDS011;10107;51.198;6.824;2023-01-09T16:56:47;9.90;;;3.90;;
19889;SDS011;10107;51.198;6.824;2023-01-09T17:00:51;14.02;;;4.28;;
19889;SDS011;10107;51.198;6.824;2023-01-09T17:04:56;6.63;;;3.47;;
19889;SDS011;10107;51.198;6.824;2023-01-09T17:09:08;10.60;;;5.83;;
19889;SDS011;10107;51.198;6.824;2023-01-09T17:13:15;5.75;;;3.35;;
19889;SDS011;10107;51.198;6.824;2023-01-09T17:17:18;7.43;;;3.38;;
19889;SDS011;10107;51.198;6.824;2023-01-09T17:21:21;6.70;;;3.25;;
19889;SDS011;10107;51.198;6.824;2023-01-09T17:25:24;7.22;;;3.05;;
19889;SDS011;10107;51.198;6.824;2023-01-09T17:29:43;7.43;;;3.47;;
19889;SDS011;10107;51.198;6.824;2023-01-09T17:33:47;6.88;;;3.08;;
19889;SDS011;10107;51.198;6.824;2023-01-09T17:37:49;8.38;;;3.10;;
19889;SDS011;10107;51.198;6.824;2023-01-09T17:41:50;4.25;;;2.92;;
19889;SDS011;10107;51.198;6.824;2023-01-09T17:45:52;6.88;;;2.88;;
19889;SDS011;10107;51.198;6.824;2023-01-09T17:49:55;6.97;;;3.00;;
19889;SDS011;10107;51.198;6.824;2023-01-09T17:53:57;14.13;;;3.73;;
19889;SDS011;10107;51.198;6.824;2023-01-09T17:57:59;7.60;;;4.10;;
19889;SDS011;10107;51.198;6.824;2023-01-09T18:02:01;8.25;;;3.55;;
19889;SDS011;10107;51.198;6.824;2023-01-09T18:06:04;6.57;;;3.20;;
19889;SDS011;10107;51.198;6.824;2023-01-09T18:14:13;6.90;;;3.00;;
19889;SDS011;10107;51.198;6.824;2023-01-09T18:18:16;4.57;;;2.85;;
19889;SDS011;10107;51.198;6.824;2023-01-09T18:22:20;5.60;;;3.08;;
19889;SDS011;10107;51.198;6.824;2023-01-09T18:26:22;5.53;;;2.43;;
19889;SDS011;10107;51.198;6.824;2023-01-09T18:30:24;6.45;;;3.00;;
19889;SDS011;10107;51.198;6.824;2023-01-09T18:34:26;7.05;;;4.68;;
19889;SDS011;10107;51.198;6.824;2023-01-09T18:38:29;13.50;;;7.28;;
19889;SDS011;10107;51.198;6.824;2023-01-09T18:42:31;20.30;;;7.43;;
19889;SDS011;10107;51.198;6.824;2023-01-09T18:46:33;11.80;;;5.25;;
19889;SDS011;10107;51.198;6.824;2023-01-09T18:50:34;12.82;;;5.22;;
19889;SDS011;10107;51.198;6.824;2023-01-09T18:54:37;7.55;;;3.38;;
19889;SDS011;10107;51.198;6.824;2023-01-09T18:58:41;7.40;;;3.42;;
19889;SDS011;10107;51.198;6.824;2023-01-09T19:02:43;5.80;;;3.13;;
19889;SDS011;10107;51.198;6.824;2023-01-09T19:06:45;8.02;;;3.70;;
19889;SDS011;10107;51.198;6.824;2023-01-09T19:10:50;9.60;;;3.80;;
19889;SDS011;10107;51.198;6.824;2023-01-09T19:14:52;7.32;;;3.80;;
19889;SDS011;10107;51.198;6.824;2023-01-09T19:18:55;10.70;;;4.43;;
19889;SDS011;10107;51.198;6.824;2023-01-09T19:23:01;7.72;;;3.97;;
19889;SDS011;10107;51.198;6.824;2023-01-09T19:27:04;8.30;;;4.05;;
19889;SDS011;10107;51.198;6.824;2023-01-09T19:31:05;8.23;;;4.30;;
19889;SDS011;10107;51.198;6.824;2023-01-09T19:35:07;8.55;;;4.53;;
19889;SDS011;10107;51.198;6.824;2023-01-09T19:39:10;8.98;;;4.82;;
19889;SDS011;10107;51.198;6.824;2023-01-09T19:43:13;7.78;;;4.57;;
19889;SDS011;10107;51.198;6.824;2023-01-09T19:47:24;10.07;;;4.90;;
19889;SDS011;10107;51.198;6.824;2023-01-09T19:51:27;10.20;;;5.10;;
19889;SDS011;10107;51.198;6.824;2023-01-09T19:55:29;8.98;;;4.90;;
19889;SDS011;10107;51.198;6.824;2023-01-09T19:59:32;10.23;;;5.32;;
19889;SDS011;10107;51.198;6.824;2023-01-09T20:03:34;10.82;;;6.28;;
19889;SDS011;10107;51.198;6.824;2023-01-09T20:07:36;10.25;;;5.57;;
19889;SDS011;10107;51.198;6.824;2023-01-09T20:11:38;10.50;;;5.78;;
19889;SDS011;10107;51.198;6.824;2023-01-09T20:15:42;10.43;;;5.73;;
19889;SDS011;10107;51.198;6.824;2023-01-09T20:19:44;11.38;;;6.03;;
19889;SDS011;10107;51.198;6.824;2023-01-09T20:23:45;12.75;;;6.28;;
19889;SDS011;10107;51.198;6.824;2023-01-09T20:27:47;10.68;;;5.60;;
19889;SDS011;10107;51.198;6.824;2023-01-09T20:31:50;11.02;;;5.38;;
19889;SDS011;10107;51.198;6.824;2023-01-09T20:35:52;22.40;;;12.43;;
19889;SDS011;10107;51.198;6.824;2023-01-09T20:39:54;16.63;;;10.75;;
19889;SDS011;10107;51.198;6.824;2023-01-09T20:43:57;14.57;;;8.65;;
19889;SDS011;10107;51.198;6.824;2023-01-09T20:48:01;10.98;;;6.75;;
19889;SDS011;10107;51.198;6.824;2023-01-09T20:52:03;12.47;;;6.83;;
19889;SDS011;10107;51.198;6.824;2023-01-09T20:56:05;9.93;;;6.15;;
19889;SDS011;10107;51.198;6.824;2023-01-09T21:00:10;12.98;;;6.78;;
19889;SDS011;10107;51.198;6.824;2023-01-09T21:04:13;14.20;;;6.80;;
19889;SDS011;10107;51.198;6.824;2023-01-09T21:08:17;11.30;;;6.55;;
19889;SDS011;10107;51.198;6.824;2023-01-09T21:12:18;9.88;;;5.97;;
19889;SDS011;10107;51.198;6.824;2023-01-09T21:16:33;11.20;;;5.93;;
19889;SDS011;10107;51.198;6.824;2023-01-09T21:20:38;14.32;;;7.50;;
19889;SDS011;10107;51.198;6.824;2023-01-09T21:24:40;12.20;;;6.50;;
19889;SDS011;10107;51.198;6.824;2023-01-09T21:28:49;14.05;;;7.38;;
19889;SDS011;10107;51.198;6.824;2023-01-09T21:32:54;12.43;;;6.50;;
19889;SDS011;10107;51.198;6.824;2023-01-09T21:36:57;9.60;;;5.18;;
19889;SDS011;10107;51.198;6.824;2023-01-09T21:40:59;7.03;;;3.95;;
19889;SDS011;10107;51.198;6.824;2023-01-09T21:45:21;6.57;;;3.80;;
19889;SDS011;10107;51.198;6.824;2023-01-09T21:49:41;10.27;;;4.38;;
19889;SDS011;10107;51.198;6.824;2023-01-09T21:53:45;3.27;;;2.30;;
19889;SDS011;10107;51.198;6.824;2023-01-09T21:57:47;6.25;;;3.33;;
19889;SDS011;10107;51.198;6.824;2023-01-09T22:01:49;9.25;;;4.22;;
19889;SDS011;10107;51.198;6.824;2023-01-09T22:05:51;6.93;;;4.00;;
19889;SDS011;10107;51.198;6.824;2023-01-09T22:09:55;7.47;;;3.92;;
19889;SDS011;10107;51.198;6.824;2023-01-09T22:13:57;9.45;;;4.57;;
19889;SDS011;10107;51.198;6.824;2023-01-09T22:17:59;9.75;;;5.15;;
19889;SDS011;10107;51.198;6.824;2023-01-09T22:22:01;8.13;;;3.63;;
19889;SDS011;10107;51.198;6.824;2023-01-09T22:26:08;7.43;;;4.28;;
19889;SDS011;10107;51.198;6.824;2023-01-09T22:30:12;12.05;;;6.00;;
19889;SDS011;10107;51.198;6.824;2023-01-09T22:34:14;13.38;;;7.40;;
19889;SDS011;10107;51.198;6.824;2023-01-09T22:38:17;15.57;;;9.20;;
19889;SDS011;10107;51.198;6.824;2023-01-09T22:42:20;15.10;;;7.03;;
19889;SDS011;10107;51.198;6.824;2023-01-09T22:46:22;8.82;;;5.32;;
19889;SDS011;10107;51.198;6.824;2023-01-09T22:50:24;17.63;;;9.40;;
19889;SDS011;10107;51.198;6.824;2023-01-09T22:54:30;12.38;;;7.28;;
19889;SDS011;10107;51.198;6.824;2023-01-09T22:58:33;13.00;;;6.82;;
19889;SDS011;10107;51.198;6.824;2023-01-09T23:02:35;17.67;;;7.35;;
19889;SDS011;10107;51.198;6.824;2023-01-09T23:06:37;9.83;;;4.93;;
19889;SDS011;10107;51.198;6.824;2023-01-09T23:10:39;12.02;;;6.53;;
19889;SDS011;10107;51.198;6.824;2023-01-09T23:14:43;10.73;;;5.38;;
19889;SDS011;10107;51.198;6.824;2023-01-09T23:18:45;8.88;;;5.47;;
19889;SDS011;10107;51.198;6.824;2023-01-09T23:22:47;10.07;;;4.88;;
19889;SDS011;10107;51.198;6.824;2023-01-09T23:26:48;8.52;;;5.32;;
19889;SDS011;10107;51.198;6.824;2023-01-09T23:30:52;12.50;;;6.28;;
19889;SDS011;10107;51.198;6.824;2023-01-09T23:34:55;7.65;;;5.22;;
19889;SDS011;10107;51.198;6.824;2023-01-09T23:38:57;9.07;;;4.57;;
19889;SDS011;10107;51.198;6.824;2023-01-09T23:42:59;8.23;;;4.60;;
19889;SDS011;10107;51.198;6.824;2023-01-09T23:47:11;9.13;;;4.68;;
19889;SDS011;10107;51.198;6.824;2023-01-09T23:51:13;9.85;;;4.07;;
19889;SDS011;10107;51.198;6.824;2023-01-09T23:55:14;7.97;;;4.05;;
19889;SDS011;10107;51.198;6.824;2023-01-09T23:59:16;11.60;;;4.93;;
